Česky Dansk Deutsch English Español Suomi Français Magyar Italiano Nederlands norsk Polski Português svenska Türkçe

 

Het Weer

Bierset (België)

13:50, 21 augustus 2016 (GMT)

NWNNE
WE
SWSSE
Home            
Bierset Sint-Truiden Genk Maastricht Airport Zuid Limburg Spa / La Sauveniere Goetsenhoven Schaffen Beauvechain Aachen / Merzbruck Geilenkirchen Elsenborn Kleine Brogel St-Hubert Bruxelles National Melsbroek Bel-Afb Florennes Charleroi / Gosselies Brueggen Bertrix Bel-Afb Noervenich Eindhoven Weelde Military Antwerpen / Deurne

Om een weerknop op uw website of weblog te plaatsen, copieer onderstaande code en plak die in uw pagina. In het eerste vakje staat HTML-code, in het tweede vakje UBB-code.


Add to Google

Details

Wind speed:5 bf, 18 kn, 9.3 m/s, 20.7 miles/h, 33.3 km/h
Wind direction:SW, 230°
Visibility:Greater than 10000 m, 10 km, 32800 ft, 6.2 miles
Clouds:Ein wenig bewölkt at 1500 ft, 457 m
Temperature:17°C, 63°F
Dew-point:12°C, 54°F
Atmospheric pressure:1019 hPa, 764.3 mmHg, 30.09 inHg, 1.006 atm
Relative humidity:72.4 %
METAR:EBLG 211350Z 23018KT 9999 FEW015 17/12 Q1019 NOSIG

Snelkoppelingen

Actuele weersinformatie van de hele wereld. Voeg locaties toe met het plus (+) symbool. Deze snelkoppelingen kunnen worden toegevoegd aan Google.

Lid van de Technetium groep

website free tracking
StatCounter NetStat W3C Validator

21-11-2017 11:15:48
astro.technetium.be money.technetium.be phote.technetium.be tafeltennistafel.technetium.be www.ligfiets.net